< < Back
Terminal Aerodrome Forecast


Current Version              Previous Versions:   1  2  3  4  5  6  7  8  9  

Terminal Aerodrome Forecast

589
FTUS42 KFFC 281736
TAFFTY
TAF
KFTY 281736Z 2818/2918 32006KT P6SM SCT040
      TEMPO 2818/2822 VRB15G25KT 6SM -TSRA BKN050CB
     FM290100 00000KT P6SM SCT120
     FM291500 31006KT P6SM SCT050=



Latest METAR

689
SAUS70 KWBC 281900 RRB
MTRFTY
METAR KFTY 281853Z 35004KT 10SM SCT060 34/22 A2998 RMK AO2 SLP140
T03440217


USA.gov is the U.S. government's official web portal to all federal, state and local government web resources and services.